Time;durP1;ratioP1;P1;durP2;ratioP2;P2;SDS_P1;SDS_P2;PMS_P1;PMS_P2;Temp;Humidity;BMP_temperature;BMP_pressure;BME280_temperature;BME280_humidity;BME280_pressure;Samples;Min_cycle;Max_cycle;Signal;HPM_P1;HPM_P2
2021/03/29 00:01:04;;;;;;;5.10;2.40;;;7.80;90.80;;;;;;5032752;28;20585;-68
2021/03/29 00:03:31;;;;;;;9.10;2.43;;;7.80;90.70;;;;;;5032508;28;20210;-68
2021/03/29 00:05:57;;;;;;;4.53;2.37;;;7.80;90.70;;;;;;5032540;28;20225;-66
2021/03/29 00:08:27;;;;;;;6.23;2.60;;;7.80;90.80;;;;;;5032670;28;20210;-68
2021/03/29 00:10:55;;;;;;;4.63;2.40;;;7.80;90.80;;;;;;5032849;28;20214;-68
2021/03/29 00:13:22;;;;;;;4.37;2.17;;;7.80;91.00;;;;;;5032391;28;20254;-68
2021/03/29 00:15:53;;;;;;;6.93;2.83;;;7.80;91.00;;;;;;5032709;28;20209;-68
2021/03/29 00:18:21;;;;;;;3.63;2.17;;;7.80;91.20;;;;;;5032616;28;20222;-68
2021/03/29 00:20:51;;;;;;;7.93;2.57;;;7.80;91.10;;;;;;5033034;28;20632;-68
2021/03/29 00:23:18;;;;;;;4.10;2.30;;;7.70;91.20;;;;;;5032629;28;20710;-68
2021/03/29 00:25:44;;;;;;;6.40;2.50;;;7.70;91.40;;;;;;5032357;28;20217;-68
2021/03/29 00:28:11;;;;;;;5.20;2.43;;;7.60;91.40;;;;;;5032522;28;20214;-68
2021/03/29 00:30:41;;;;;;;4.63;2.10;;;7.60;91.50;;;;;;5032561;28;20670;-68
2021/03/29 00:33:09;;;;;;;4.90;2.27;;;7.60;91.50;;;;;;5031790;28;20227;-68
2021/03/29 00:35:38;;;;;;;5.20;2.43;;;7.60;91.60;;;;;;5032288;28;20206;-68
2021/03/29 00:38:07;;;;;;;4.90;2.30;;;7.50;91.70;;;;;;5032167;28;20210;-68
2021/03/29 00:40:35;;;;;;;4.87;2.40;;;7.50;91.70;;;;;;5032160;28;20264;-68
2021/03/29 00:43:07;;;;;;;4.10;2.50;;;7.60;91.70;;;;;;5031988;28;20231;-68
2021/03/29 00:45:34;;;;;;;6.13;2.27;;;7.50;91.80;;;;;;5031900;28;20206;-68
2021/03/29 00:48:01;;;;;;;5.10;2.50;;;7.50;91.90;;;;;;5031709;28;20732;-68
2021/03/29 00:50:32;;;;;;;5.50;2.63;;;7.50;92.00;;;;;;5032373;28;20206;-68
2021/03/29 00:52:59;;;;;;;5.10;2.40;;;7.40;92.20;;;;;;5031947;28;20238;-68
2021/03/29 00:55:26;;;;;;;4.07;2.37;;;7.40;92.20;;;;;;5031803;28;20205;-68
2021/03/29 00:57:54;;;;;;;5.27;2.53;;;7.40;92.30;;;;;;5031955;28;20203;-68
2021/03/29 01:00:26;;;;;;;4.63;2.60;;;7.40;92.30;;;;;;5032128;28;20264;-68
2021/03/29 01:02:53;;;;;;;7.17;2.50;;;7.50;92.20;;;;;;5031870;28;20233;-68
2021/03/29 01:05:21;;;;;;;5.57;2.80;;;7.50;92.20;;;;;;5031901;28;20206;-68
2021/03/29 01:07:50;;;;;;;4.77;2.37;;;7.40;92.30;;;;;;5031480;28;20233;-67
2021/03/29 01:10:17;;;;;;;5.50;2.40;;;7.30;92.50;;;;;;5031826;28;20206;-68
2021/03/29 01:12:45;;;;;;;6.97;2.43;;;7.20;92.70;;;;;;5031488;28;20227;-68
2021/03/29 01:15:14;;;;;;;3.83;2.03;;;7.20;92.70;;;;;;5031742;28;20260;-67
2021/03/29 01:17:44;;;;;;;6.60;2.30;;;7.20;92.70;;;;;;5031717;28;20989;-68
2021/03/29 01:20:18;;;;;;;8.23;2.53;;;7.30;92.80;;;;;;5031978;28;20218;-67
2021/03/29 01:22:47;;;;;;;5.70;2.70;;;7.30;92.80;;;;;;5031596;28;20225;-67
2021/03/29 01:25:19;;;;;;;6.27;2.80;;;7.30;92.80;;;;;;5031065;28;20689;-68
2021/03/29 01:27:49;;;;;;;5.20;2.40;;;7.40;92.80;;;;;;5031246;28;20504;-68
2021/03/29 01:30:16;;;;;;;7.30;2.67;;;7.40;92.80;;;;;;5031365;28;20275;-68
2021/03/29 01:32:45;;;;;;;5.90;2.50;;;7.40;92.70;;;;;;5031182;28;20227;-68
2021/03/29 01:35:15;;;;;;;5.10;2.37;;;7.30;92.80;;;;;;5031241;28;20206;-68
2021/03/29 01:37:44;;;;;;;5.90;2.30;;;7.30;92.80;;;;;;5031822;28;20211;-68
2021/03/29 01:40:11;;;;;;;4.40;2.23;;;7.30;92.80;;;;;;5031802;28;20207;-68
2021/03/29 01:42:38;;;;;;;7.33;3.07;;;7.40;92.80;;;;;;5031429;28;20233;-68
2021/03/29 01:45:07;;;;;;;4.97;2.43;;;7.40;92.80;;;;;;5031382;28;20210;-68
2021/03/29 01:47:33;;;;;;;6.23;2.50;;;7.30;93.00;;;;;;5035063;28;20601;-68
2021/03/29 01:50:00;;;;;;;5.47;2.30;;;7.40;92.80;;;;;;5035347;28;20689;-68
2021/03/29 01:52:26;;;;;;;7.60;2.53;;;7.40;92.80;;;;;;5035155;28;20233;-68
2021/03/29 01:54:53;;;;;;;5.60;2.60;;;7.40;93.00;;;;;;5035435;28;20217;-68
2021/03/29 01:57:19;;;;;;;4.83;2.13;;;7.30;93.10;;;;;;5035413;28;20208;-68
2021/03/29 01:59:46;;;;;;;5.67;2.47;;;7.30;93.10;;;;;;5035326;28;20694;-68
2021/03/29 02:02:13;;;;;;;7.17;2.60;;;7.40;93.10;;;;;;5035330;28;20234;-69
2021/03/29 02:04:41;;;;;;;4.30;2.40;;;7.30;93.00;;;;;;5035231;28;20256;-68
2021/03/29 02:07:08;;;;;;;5.43;2.47;;;7.30;93.30;;;;;;5035159;28;20598;-68
2021/03/29 02:09:35;;;;;;;6.30;2.40;;;7.00;93.90;;;;;;5035441;28;20210;-68
2021/03/29 02:12:04;;;;;;;5.73;2.63;;;7.00;93.80;;;;;;5035438;28;20271;-68
2021/03/29 02:14:31;;;;;;;6.23;2.33;;;6.80;94.00;;;;;;5035161;28;20217;-68
2021/03/29 02:16:58;;;;;;;3.77;2.50;;;6.70;94.30;;;;;;5035475;28;20205;-68
2021/03/29 02:19:26;;;;;;;5.20;2.40;;;6.60;94.30;;;;;;5035226;28;20213;-68
2021/03/29 02:21:55;;;;;;;4.03;2.43;;;6.60;94.40;;;;;;5035303;28;20237;-68
2021/03/29 02:24:22;;;;;;;4.67;2.30;;;6.50;94.60;;;;;;5035263;28;20569;-68
2021/03/29 02:26:49;;;;;;;5.50;2.53;;;6.40;94.70;;;;;;5034816;28;20591;-68
2021/03/29 02:29:19;;;;;;;7.07;2.80;;;6.40;94.90;;;;;;5034128;28;20213;-68
2021/03/29 02:31:46;;;;;;;5.37;2.50;;;6.40;94.90;;;;;;5034133;28;20225;-68
2021/03/29 02:34:13;;;;;;;7.07;2.50;;;6.30;95.00;;;;;;5034176;28;20493;-68
2021/03/29 02:36:41;;;;;;;7.90;2.30;;;6.30;95.10;;;;;;5034180;28;20202;-69
2021/03/29 02:39:08;;;;;;;5.50;2.30;;;6.30;95.10;;;;;;5034155;28;20745;-68
2021/03/29 02:41:34;;;;;;;4.23;2.13;;;6.40;95.20;;;;;;5034048;28;20226;-66
2021/03/29 02:44:01;;;;;;;5.00;2.57;;;6.40;95.10;;;;;;5033967;28;20689;-67
2021/03/29 02:46:30;;;;;;;7.10;2.63;;;6.40;95.20;;;;;;5034055;28;20230;-66
2021/03/29 02:48:58;;;;;;;5.53;2.73;;;6.30;95.30;;;;;;5034236;28;20206;-67
2021/03/29 02:51:25;;;;;;;10.07;2.73;;;6.30;95.20;;;;;;5034995;28;20248;-67
2021/03/29 02:53:57;;;;;;;4.37;2.33;;;6.40;95.20;;;;;;5034046;28;20678;-67
2021/03/29 02:56:27;;;;;;;6.00;2.47;;;6.50;95.20;;;;;;5033546;28;20217;-69
2021/03/29 02:58:59;;;;;;;5.10;2.60;;;6.40;95.30;;;;;;5033767;28;20674;-67
2021/03/29 03:01:27;;;;;;;6.57;2.30;;;6.30;95.50;;;;;;5033864;28;20225;-68
2021/03/29 03:03:54;;;;;;;6.00;2.40;;;6.30;95.70;;;;;;5033777;28;20209;-69
2021/03/29 03:06:22;;;;;;;7.70;2.53;;;6.20;95.80;;;;;;5033861;28;20384;-67
2021/03/29 03:08:49;;;;;;;5.70;2.23;;;6.20;95.90;;;;;;5033836;28;20693;-67
2021/03/29 03:11:17;;;;;;;4.50;2.20;;;6.10;96.00;;;;;;5034174;28;20225;-68
2021/03/29 03:13:44;;;;;;;7.30;2.50;;;6.20;96.00;;;;;;5033485;28;20784;-68
2021/03/29 03:16:10;;;;;;;5.70;2.90;;;6.20;95.90;;;;;;5033634;28;20589;-68
2021/03/29 03:18:38;;;;;;;4.60;2.10;;;6.30;95.70;;;;;;5033916;28;20233;-68
2021/03/29 03:21:05;;;;;;;4.37;2.10;;;6.40;95.70;;;;;;5033938;28;20198;-69
2021/03/29 03:23:31;;;;;;;4.83;2.20;;;6.40;95.70;;;;;;5034047;28;20625;-68
2021/03/29 03:25:58;;;;;;;5.50;2.53;;;6.40;95.70;;;;;;5033210;28;20579;-68
2021/03/29 03:28:26;;;;;;;4.73;2.53;;;6.40;95.70;;;;;;5032933;28;20574;-68
2021/03/29 03:30:55;;;;;;;5.03;2.60;;;6.40;95.60;;;;;;5033405;28;20613;-68
2021/03/29 03:33:24;;;;;;;5.63;2.60;;;6.40;95.60;;;;;;5033192;28;20226;-67
2021/03/29 03:35:51;;;;;;;5.87;2.57;;;6.40;95.50;;;;;;5033556;28;20212;-67
2021/03/29 03:38:21;;;;;;;6.07;2.73;;;6.50;95.50;;;;;;5033243;28;20202;-68
2021/03/29 03:40:51;;;;;;;6.57;2.33;;;6.60;95.30;;;;;;5033168;28;20217;-67
2021/03/29 03:43:20;;;;;;;6.83;2.40;;;6.70;95.20;;;;;;5033083;28;20230;-68
2021/03/29 03:45:52;;;;;;;10.03;2.83;;;6.70;95.00;;;;;;5033743;28;20220;-67
2021/03/29 03:48:20;;;;;;;5.87;2.83;;;6.70;95.00;;;;;;5033413;28;20210;-67
2021/03/29 03:50:48;;;;;;;7.13;3.27;;;6.70;94.90;;;;;;5033123;28;20214;-67
2021/03/29 03:53:15;;;;;;;6.13;2.70;;;6.70;95.10;;;;;;5032888;28;20234;-67
2021/03/29 03:55:42;;;;;;;6.37;2.80;;;6.50;95.40;;;;;;5033072;28;20207;-71
2021/03/29 03:58:10;;;;;;;5.97;2.83;;;6.50;95.50;;;;;;5032891;28;20206;-69
2021/03/29 04:00:37;;;;;;;7.43;2.90;;;6.50;95.50;;;;;;5032902;28;20210;-67
2021/03/29 04:03:04;;;;;;;6.57;2.60;;;6.50;95.50;;;;;;5032726;28;20257;-67
2021/03/29 04:05:30;;;;;;;5.50;2.53;;;6.40;95.60;;;;;;5032592;28;20206;-69
2021/03/29 04:07:58;;;;;;;5.60;2.50;;;6.50;95.70;;;;;;5031504;28;20234;-67
2021/03/29 04:10:35;;;;;;;4.70;2.50;;;6.60;95.60;;;;;;5032963;28;20210;-68
2021/03/29 04:13:02;;;;;;;5.90;2.40;;;6.60;95.60;;;;;;5032742;28;20225;-67
2021/03/29 04:15:28;;;;;;;5.80;2.97;;;6.60;95.90;;;;;;5032292;28;20273;-66
2021/03/29 04:17:54;;;;;;;8.00;2.53;;;6.60;95.60;;;;;;5032287;28;20205;-68
2021/03/29 04:20:21;;;;;;;6.30;2.50;;;6.70;95.50;;;;;;5032004;28;20210;-67
2021/03/29 04:22:48;;;;;;;6.80;2.83;;;6.80;95.20;;;;;;5032288;28;20230;-67
2021/03/29 04:25:14;;;;;;;5.83;2.73;;;6.80;95.10;;;;;;5032090;28;20237;-67
2021/03/29 04:27:41;;;;;;;6.50;2.77;;;6.90;94.90;;;;;;5031741;28;20233;-69
2021/03/29 04:30:10;;;;;;;6.00;2.47;;;7.00;94.80;;;;;;5031797;28;20693;-67
2021/03/29 04:32:37;;;;;;;6.53;2.80;;;7.10;94.70;;;;;;5031833;28;20233;-66
2021/03/29 04:35:04;;;;;;;4.87;2.90;;;7.10;94.70;;;;;;5031740;28;20202;-67
2021/03/29 04:37:31;;;;;;;5.73;2.73;;;7.10;94.60;;;;;;5032106;28;20262;-66
2021/03/29 04:39:57;;;;;;;5.27;2.80;;;7.10;94.60;;;;;;5031521;28;20700;-67
2021/03/29 04:42:23;;;;;;;8.07;2.50;;;7.10;94.70;;;;;;5031597;28;20230;-67
2021/03/29 04:44:49;;;;;;;6.87;2.90;;;7.10;94.80;;;;;;5031890;28;20202;-67
2021/03/29 04:47:16;;;;;;;6.10;2.67;;;7.10;94.70;;;;;;5031659;28;20225;-66
2021/03/29 04:49:42;;;;;;;5.00;2.43;;;7.20;94.70;;;;;;5031890;28;20685;-66
2021/03/29 04:52:08;;;;;;;5.23;3.10;;;7.20;94.60;;;;;;5031948;28;20233;-67
2021/03/29 04:54:36;;;;;;;6.97;3.30;;;7.30;94.40;;;;;;5032105;28;20206;-66
2021/03/29 04:57:02;;;;;;;4.67;2.90;;;7.50;94.30;;;;;;5031831;28;20549;-66
2021/03/29 04:59:28;;;;;;;6.60;2.97;;;7.50;94.10;;;;;;5031532;28;20216;-66
2021/03/29 05:01:54;;;;;;;8.70;2.97;;;7.60;94.10;;;;;;5031295;28;20705;-66
2021/03/29 05:04:21;;;;;;;7.00;2.80;;;7.70;94.00;;;;;;5031272;28;20206;-69
2021/03/29 05:06:47;;;;;;;7.50;2.87;;;7.70;93.80;;;;;;5031284;28;20536;-67
2021/03/29 05:09:13;;;;;;;4.97;2.70;;;7.80;93.70;;;;;;5031527;28;20205;-68
2021/03/29 05:11:48;;;;;;;9.33;3.70;;;7.80;93.60;;;;;;5031476;28;20236;-69
2021/03/29 05:14:15;;;;;;;9.80;4.00;;;7.90;93.60;;;;;;5031374;28;20201;-66
2021/03/29 05:16:41;;;;;;;8.33;4.33;;;8.00;93.40;;;;;;5031652;28;20701;-67
2021/03/29 05:19:07;;;;;;;7.20;3.70;;;8.00;93.30;;;;;;5031303;28;20218;-66
2021/03/29 05:21:33;;;;;;;10.73;4.63;;;8.10;93.10;;;;;;5031456;28;20242;-70
2021/03/29 05:24:00;;;;;;;8.50;4.60;;;8.20;93.10;;;;;;5031346;28;20670;-67
2021/03/29 05:26:26;;;;;;;10.50;4.70;;;8.20;93.10;;;;;;5031953;28;20266;-67
2021/03/29 05:28:53;;;;;;;25.60;16.67;;;8.30;93.10;;;;;;5030982;28;20209;-67
2021/03/29 05:31:20;;;;;;;10.57;7.57;;;8.40;92.80;;;;;;5030962;28;20214;-67
2021/03/29 05:33:46;;;;;;;8.53;4.97;;;8.50;92.60;;;;;;5031138;28;20210;-67
2021/03/29 05:36:14;;;;;;;10.37;2.97;;;8.60;92.40;;;;;;5031041;28;20210;-67
2021/03/29 05:38:41;;;;;;;7.77;3.40;;;8.70;92.30;;;;;;5031084;28;20870;-67
2021/03/29 05:41:08;;;;;;;9.53;3.70;;;8.70;92.20;;;;;;5030868;28;20589;-67
2021/03/29 05:43:34;;;;;;;8.77;3.87;;;8.90;92.00;;;;;;5030846;28;20206;-68
2021/03/29 05:46:01;;;;;;;13.50;5.97;;;9.00;91.80;;;;;;5031218;28;20217;-68
2021/03/29 05:48:28;;;;;;;8.80;3.40;;;9.20;91.90;;;;;;5031220;28;20280;-66
2021/03/29 05:50:54;;;;;;;6.90;3.53;;;9.30;91.70;;;;;;5031142;28;20213;-68
2021/03/29 05:53:20;;;;;;;5.27;3.10;;;9.50;91.30;;;;;;5030905;28;20238;-68
2021/03/29 05:55:48;;;;;;;5.57;2.93;;;9.70;91.00;;;;;;5030595;28;20221;-67
2021/03/29 05:58:32;;;;;;;5.73;3.00;;;9.80;90.70;;;;;;5030878;28;20237;-68
2021/03/29 06:00:58;;;;;;;8.10;2.90;;;9.90;90.20;;;;;;5031188;28;20210;-67
2021/03/29 06:03:28;;;;;;;7.33;2.73;;;10.10;89.10;;;;;;5030905;28;20571;-66
2021/03/29 06:05:56;;;;;;;6.03;2.77;;;10.20;89.20;;;;;;5031496;28;20210;-68
2021/03/29 06:08:23;;;;;;;5.67;2.70;;;10.20;88.60;;;;;;5030852;28;20260;-66
2021/03/29 06:10:53;;;;;;;7.43;4.30;;;10.40;88.40;;;;;;5031122;28;20502;-67
2021/03/29 06:13:22;;;;;;;11.67;3.50;;;10.50;87.70;;;;;;5031131;28;20226;-67
2021/03/29 06:15:59;;;;;;;4.57;2.70;;;10.60;87.80;;;;;;5031344;28;20206;-67
2021/03/29 06:18:26;;;;;;;5.83;2.53;;;10.90;86.90;;;;;;5030988;28;20595;-67
2021/03/29 06:21:07;;;;;;;5.40;2.83;;;11.10;86.00;;;;;;5031528;28;20272;-66
2021/03/29 06:23:34;;;;;;;4.03;2.53;;;11.20;85.70;;;;;;5031130;28;20236;-66
2021/03/29 06:26:17;;;;;;;7.70;2.57;;;11.30;85.20;;;;;;5031171;28;20218;-67
2021/03/29 06:28:44;;;;;;;8.37;3.27;;;11.40;85.00;;;;;;5031515;28;20206;-66
2021/03/29 06:31:21;;;;;;;5.67;3.20;;;11.40;84.60;;;;;;5031829;28;20221;-68
2021/03/29 06:33:49;;;;;;;6.87;3.17;;;11.50;84.20;;;;;;5035305;28;20209;-67
2021/03/29 06:36:28;;;;;;;10.33;3.10;;;11.60;83.70;;;;;;5035034;28;20216;-66
2021/03/29 06:38:54;;;;;;;8.00;2.87;;;11.60;83.40;;;;;;5034812;28;20260;-67
2021/03/29 06:41:26;;;;;;;6.90;3.00;;;11.70;83.50;;;;;;5035027;28;20206;-66
2021/03/29 06:43:52;;;;;;;8.73;3.30;;;11.70;83.30;;;;;;5034958;28;20211;-67
2021/03/29 06:46:23;;;;;;;5.77;3.03;;;11.80;83.10;;;;;;5034380;28;20402;-68
2021/03/29 06:48:51;;;;;;;7.00;4.03;;;11.90;82.70;;;;;;5033977;28;20666;-68
2021/03/29 06:51:19;;;;;;;9.10;3.60;;;12.20;82.30;;;;;;5034290;28;20206;-69
2021/03/29 06:53:47;;;;;;;7.93;3.40;;;12.30;81.70;;;;;;5034187;28;20260;-68
2021/03/29 06:56:31;;;;;;;5.03;2.87;;;12.50;81.40;;;;;;5033718;28;20206;-68
2021/03/29 06:59:07;;;;;;;6.83;3.43;;;12.60;81.10;;;;;;5033977;28;20217;-69
2021/03/29 07:01:35;;;;;;;8.33;3.00;;;12.60;81.20;;;;;;5033962;28;20394;-68
2021/03/29 07:04:04;;;;;;;5.87;2.97;;;12.70;80.80;;;;;;5033442;28;20674;-70
2021/03/29 07:06:32;;;;;;;7.60;3.37;;;13.00;80.90;;;;;;5033749;28;20218;-68
2021/03/29 07:09:05;;;;;;;6.57;2.60;;;14.30;79.00;;;;;;5033336;28;20213;-68
2021/03/29 07:11:32;;;;;;;5.10;3.30;;;15.10;75.90;;;;;;5034196;28;20311;-68
2021/03/29 07:13:59;;;;;;;6.00;2.90;;;15.50;74.20;;;;;;5033797;28;20217;-68
2021/03/29 07:16:27;;;;;;;8.67;4.60;;;15.60;73.60;;;;;;5033858;28;20206;-68
2021/03/29 07:18:56;;;;;;;3.63;2.80;;;15.50;73.10;;;;;;5033345;28;20211;-68
2021/03/29 07:21:23;;;;;;;5.80;2.83;;;15.50;72.70;;;;;;5033473;28;20207;-68
2021/03/29 07:23:51;;;;;;;6.73;2.80;;;15.60;71.90;;;;;;5033185;28;20210;-68
2021/03/29 07:26:35;;;;;;;6.57;2.90;;;15.80;71.50;;;;;;5033224;28;20293;-69
2021/03/29 07:29:19;;;;;;;5.83;2.83;;;15.80;71.00;;;;;;5033164;28;20217;-68
2021/03/29 07:31:48;;;;;;;5.33;2.67;;;15.70;71.30;;;;;;5033172;28;20226;-68
2021/03/29 07:34:15;;;;;;;6.37;2.90;;;15.60;70.70;;;;;;5032944;28;20212;-68
2021/03/29 07:36:46;;;;;;;6.33;2.40;;;15.50;71.20;;;;;;5033279;28;20218;-68
2021/03/29 07:39:19;;;;;;;6.07;2.73;;;16.00;70.80;;;;;;5032992;28;20237;-65
2021/03/29 07:41:45;;;;;;;6.13;2.40;;;16.60;68.00;;;;;;5033242;28;20231;-68
2021/03/29 07:44:14;;;;;;;5.00;2.60;;;16.80;66.70;;;;;;5032867;28;20237;-68
2021/03/29 07:46:43;;;;;;;5.30;2.40;;;17.00;66.30;;;;;;5033258;28;20225;-68
2021/03/29 07:49:40;;;;;;;4.87;2.50;;;17.30;65.60;;;;;;5033002;28;20258;-68
2021/03/29 07:52:27;;;;;;;6.80;2.70;;;17.60;65.00;;;;;;5033040;28;20245;-68
2021/03/29 07:54:55;;;;;;;4.60;2.53;;;18.30;63.70;;;;;;5032786;28;20210;-68
2021/03/29 07:57:59;;;;;;;4.53;2.60;;;19.30;61.80;;;;;;5033083;28;20297;-69
2021/03/29 08:00:41;;;;;;;5.20;2.50;;;20.00;58.90;;;;;;5032713;28;20667;-68
2021/03/29 08:03:36;;;;;;;4.60;3.17;;;20.90;57.30;;;;;;5032536;28;20230;-69
2021/03/29 08:06:02;;;;;;;4.20;2.58;;;21.20;57.80;;;;;;5032933;28;20535;-68
2021/03/29 08:08:42;;;;;;;6.22;2.40;;;21.00;57.10;;;;;;5032828;28;20295;-64
2021/03/29 08:11:10;;;;;;;8.10;2.90;;;20.50;56.30;;;;;;5033509;28;20212;-63
2021/03/29 08:13:38;;;;;;;7.40;2.88;;;19.80;57.40;;;;;;5032989;28;20218;-63
2021/03/29 08:16:06;;;;;;;4.72;2.47;;;19.10;58.80;;;;;;5033422;28;20244;-64
2021/03/29 08:19:07;;;;;;;5.60;3.15;;;18.60;58.90;;;;;;5033039;28;20202;-63
2021/03/29 08:21:47;;;;;;;7.38;3.00;;;18.00;61.60;;;;;;5032282;28;20237;-64
2021/03/29 08:24:22;;;;;;;8.63;2.83;;;17.30;62.90;;;;;;5032018;28;20233;-63
2021/03/29 08:26:50;;;;;;;6.17;2.80;;;17.00;63.40;;;;;;5032485;28;20225;-63
2021/03/29 08:29:21;;;;;;;5.43;2.50;;;16.90;64.00;;;;;;5032114;28;20206;-63
2021/03/29 08:32:09;;;;;;;5.73;2.70;;;16.90;61.50;;;;;;5032112;28;20230;-63
2021/03/29 08:34:41;;;;;;;5.03;3.10;;;16.90;60.40;;;;;;5031564;28;20697;-63
2021/03/29 08:37:08;;;;;;;6.40;2.47;;;17.00;60.50;;;;;;5031997;28;20210;-63
2021/03/29 08:39:37;;;;;;;8.70;2.80;;;17.00;60.40;;;;;;5031435;28;20202;-63
2021/03/29 08:42:05;;;;;;;5.03;2.30;;;17.10;59.80;;;;;;5031804;28;20227;-63
2021/03/29 08:44:33;;;;;;;3.57;2.30;;;17.20;59.40;;;;;;5031576;28;20674;-62
2021/03/29 08:46:59;;;;;;;5.27;1.97;;;17.30;58.20;;;;;;5031431;28;20592;-64
2021/03/29 08:49:26;;;;;;;5.30;2.13;;;17.50;57.50;;;;;;5031574;28;20267;-63
2021/03/29 08:51:53;;;;;;;5.40;2.00;;;17.60;57.20;;;;;;5032051;28;20234;-62
2021/03/29 08:54:20;;;;;;;5.27;1.73;;;18.10;56.00;;;;;;5031104;28;20213;-62
2021/03/29 08:56:49;;;;;;;4.90;2.10;;;18.40;54.90;;;;;;5031505;28;20208;-63
2021/03/29 08:59:16;;;;;;;8.38;2.38;;;18.50;55.50;;;;;;5031218;28;20581;-64
2021/03/29 09:01:43;;;;;;;8.90;2.50;;;18.80;57.10;;;;;;5031693;28;20230;-63
2021/03/29 09:04:10;;;;;;;8.05;2.80;;;18.90;57.60;;;;;;5031689;28;20202;-63
2021/03/29 09:06:37;;;;;;;6.25;2.28;;;18.50;57.70;;;;;;5031380;28;20206;-63
2021/03/29 09:09:13;;;;;;;5.88;2.58;;;18.20;58.60;;;;;;5031771;28;20237;-63
2021/03/29 09:11:40;;;;;;;6.47;2.10;;;17.90;58.60;;;;;;5031444;28;20248;-62
2021/03/29 09:14:09;;;;;;;6.67;2.30;;;17.50;58.50;;;;;;5031307;28;20213;-62
2021/03/29 09:16:35;;;;;;;6.37;2.10;;;17.20;58.90;;;;;;5031741;28;20206;-63
2021/03/29 09:19:14;;;;;;;9.23;5.30;;;17.20;58.90;;;;;;5031538;28;20210;-63
2021/03/29 09:21:41;;;;;;;6.43;1.80;;;17.20;57.20;;;;;;5031618;28;20230;-62
2021/03/29 09:24:27;;;;;;;9.20;2.03;;;17.40;56.50;;;;;;5031254;28;20257;-62
2021/03/29 09:26:58;;;;;;;3.93;2.00;;;17.70;56.70;;;;;;5031451;28;20222;-62
2021/03/29 09:29:33;;;;;;;4.17;1.70;;;17.80;56.10;;;;;;5031310;28;20268;-62
2021/03/29 09:32:06;;;;;;;4.87;1.60;;;17.90;55.30;;;;;;5031290;28;20242;-63
2021/03/29 09:34:34;;;;;;;4.30;1.50;;;18.00;55.30;;;;;;5030875;28;20252;-62
2021/03/29 09:37:01;;;;;;;5.00;1.70;;;18.20;54.40;;;;;;5030866;28;20202;-62
2021/03/29 09:39:31;;;;;;;5.60;1.90;;;18.30;54.60;;;;;;5030790;28;20206;-63
2021/03/29 09:41:59;;;;;;;4.43;1.88;;;18.40;55.20;;;;;;5031111;28;20237;-63
2021/03/29 09:44:29;;;;;;;5.93;2.00;;;18.50;54.80;;;;;;5030631;28;20308;-63
2021/03/29 09:46:58;;;;;;;5.05;1.90;;;18.60;54.20;;;;;;5031404;28;20579;-63
2021/03/29 09:49:26;;;;;;;7.07;1.67;;;18.60;54.40;;;;;;5030636;28;20215;-63
2021/03/29 09:52:02;;;;;;;5.33;2.03;;;18.70;54.00;;;;;;5030687;28;20242;-64
2021/03/29 09:54:29;;;;;;;5.67;2.23;;;18.70;55.00;;;;;;5030843;28;20267;-63
2021/03/29 09:56:58;;;;;;;4.22;2.03;;;18.80;54.90;;;;;;5030913;28;20919;-63
2021/03/29 09:59:29;;;;;;;6.85;2.10;;;18.80;54.60;;;;;;5030789;28;20210;-63
2021/03/29 10:01:56;;;;;;;4.60;1.80;;;18.90;55.10;;;;;;5030724;28;20260;-73
2021/03/29 10:04:23;;;;;;;4.88;1.83;;;18.90;54.10;;;;;;5031875;28;20210;-69
2021/03/29 10:06:54;;;;;;;5.47;1.85;;;19.00;53.90;;;;;;5032331;28;20270;-70
2021/03/29 10:09:32;;;;;;;4.93;1.92;;;19.10;53.40;;;;;;5034494;28;20728;-69
2021/03/29 10:12:00;;;;;;;6.65;3.28;;;19.00;53.30;;;;;;5034619;28;20222;-70
2021/03/29 10:14:34;;;;;;;3.50;1.83;;;19.00;53.80;;;;;;5034269;28;20212;-69
2021/03/29 10:17:01;;;;;;;8.70;2.15;;;19.00;53.70;;;;;;5034261;28;20206;-69
2021/03/29 10:19:33;;;;;;;3.88;1.73;;;19.00;54.00;;;;;;5034565;28;20206;-70
2021/03/29 10:22:02;;;;;;;6.72;1.77;;;19.10;53.10;;;;;;5034791;28;20226;-68
2021/03/29 10:24:28;;;;;;;5.28;1.80;;;19.10;53.80;;;;;;5034170;28;20248;-68
2021/03/29 10:26:56;;;;;;;5.72;1.73;;;19.30;54.20;;;;;;5034177;28;20233;-68
2021/03/29 10:29:38;;;;;;;6.40;2.38;;;19.30;53.40;;;;;;5034722;28;20600;-69
2021/03/29 10:32:11;;;;;;;3.67;1.73;;;19.40;53.20;;;;;;5034451;28;20235;-69
2021/03/29 10:34:38;;;;;;;4.30;2.17;;;19.30;53.20;;;;;;5034113;28;20317;-67
2021/03/29 10:37:07;;;;;;;5.13;1.73;;;19.20;53.80;;;;;;5034679;28;20198;-66
2021/03/29 10:39:33;;;;;;;5.05;2.10;;;19.20;53.00;;;;;;5034343;28;20210;-69
2021/03/29 10:41:59;;;;;;;5.30;1.90;;;19.10;53.10;;;;;;5034437;28;20226;-69
2021/03/29 10:44:26;;;;;;;5.13;1.95;;;19.20;53.50;;;;;;5035214;28;20233;-73
2021/03/29 10:46:53;;;;;;;4.45;1.80;;;19.30;53.20;;;;;;5034981;28;20230;-67
2021/03/29 10:49:19;;;;;;;3.83;1.42;;;19.50;52.10;;;;;;5034006;28;20697;-69
2021/03/29 10:51:45;;;;;;;4.45;1.75;;;19.70;50.90;;;;;;5034050;28;20238;-68
2021/03/29 10:54:12;;;;;;;5.63;1.95;;;19.80;51.30;;;;;;5033971;28;20697;-69
2021/03/29 10:56:38;;;;;;;4.65;2.00;;;20.00;51.40;;;;;;5034117;28;20206;-68
2021/03/29 10:59:04;;;;;;;6.32;1.83;;;20.10;49.80;;;;;;5033851;28;20272;-68
2021/03/29 11:01:31;;;;;;;4.45;1.98;;;20.20;49.60;;;;;;5033373;28;20233;-69
2021/03/29 11:03:58;;;;;;;6.63;1.90;;;20.20;49.40;;;;;;5033567;28;20236;-69
2021/03/29 11:06:24;;;;;;;4.18;1.73;;;20.30;49.20;;;;;;5034012;28;20210;-69
2021/03/29 11:08:50;;;;;;;4.68;1.77;;;20.50;49.40;;;;;;5034334;28;20245;-71
2021/03/29 11:11:17;;;;;;;6.18;2.08;;;20.40;49.80;;;;;;5033701;28;20308;-70
2021/03/29 11:13:44;;;;;;;8.63;2.47;;;20.40;49.70;;;;;;5033680;28;20217;-68
2021/03/29 11:16:11;;;;;;;4.32;1.80;;;20.40;49.70;;;;;;5033574;28;20369;-69
2021/03/29 11:18:37;;;;;;;6.78;1.95;;;20.50;49.30;;;;;;5032897;28;20205;-67
2021/03/29 11:21:05;;;;;;;6.40;1.65;;;20.40;49.50;;;;;;5033137;28;20588;-68
2021/03/29 11:23:31;;;;;;;8.52;2.50;;;20.30;49.70;;;;;;5033415;28;20694;-68
2021/03/29 11:25:57;;;;;;;6.18;2.20;;;20.40;49.60;;;;;;5033522;28;20207;-69
2021/03/29 11:28:23;;;;;;;6.35;2.40;;;20.40;49.40;;;;;;5033148;28;20241;-69
2021/03/29 11:30:50;;;;;;;6.47;2.30;;;20.60;49.20;;;;;;5033208;28;20206;-68
2021/03/29 11:33:16;;;;;;;6.80;2.15;;;20.70;48.80;;;;;;5033156;28;20729;-67
2021/03/29 11:35:43;;;;;;;5.32;1.90;;;20.80;48.20;;;;;;5033130;28;20664;-67
2021/03/29 11:38:10;;;;;;;5.15;2.00;;;21.00;48.50;;;;;;5032766;28;20202;-68
2021/03/29 11:40:36;;;;;;;5.72;1.80;;;21.10;47.30;;;;;;5032817;28;20209;-69
2021/03/29 11:43:02;;;;;;;5.45;1.80;;;21.10;47.10;;;;;;5032908;28;20226;-69
2021/03/29 11:45:29;;;;;;;6.65;2.25;;;21.10;46.80;;;;;;5032363;28;20202;-68
2021/03/29 11:47:55;;;;;;;7.22;2.38;;;21.30;47.40;;;;;;5032434;28;20226;-68
2021/03/29 11:50:21;;;;;;;5.13;1.88;;;21.40;47.00;;;;;;5032515;28;20209;-67
2021/03/29 11:52:47;;;;;;;5.93;2.47;;;21.40;47.10;;;;;;5032473;28;20245;-68
2021/03/29 11:55:15;;;;;;;4.70;2.05;;;21.40;47.10;;;;;;5032550;28;20210;-68
2021/03/29 11:57:42;;;;;;;5.72;2.17;;;21.60;47.70;;;;;;5032319;28;20206;-68
2021/03/29 12:00:16;;;;;;;4.90;2.33;;;21.60;47.20;;;;;;5032471;28;20242;-68
2021/03/29 12:02:47;;;;;;;4.97;2.20;;;21.50;47.20;;;;;;5032351;28;20676;-68
2021/03/29 12:05:16;;;;;;;9.15;3.20;;;21.50;46.80;;;;;;5032682;28;20225;-68
2021/03/29 12:07:51;;;;;;;2.92;1.85;;;21.60;46.40;;;;;;5032378;28;20222;-68
2021/03/29 12:13:03;;;;;;;3.67;1.83;;;21.90;45.70;;;;;;5032177;28;20307;-68
2021/03/29 12:15:30;;;;;;;8.88;2.15;;;21.80;46.20;;;;;;5031813;28;20226;-69
2021/03/29 12:17:57;;;;;;;4.47;1.90;;;21.80;45.30;;;;;;5032308;28;20206;-69
2021/03/29 12:20:23;;;;;;;12.82;5.35;;;21.90;45.30;;;;;;5032091;28;20203;-68
2021/03/29 12:22:51;;;;;;;5.15;2.25;;;21.90;45.30;;;;;;5032331;28;20249;-70
2021/03/29 12:25:21;;;;;;;7.93;2.80;;;22.10;44.90;;;;;;5032103;28;20214;-69
2021/03/29 12:27:48;;;;;;;8.38;2.10;;;22.20;45.20;;;;;;5031825;28;20729;-68
2021/03/29 12:30:17;;;;;;;7.22;2.28;;;22.30;45.10;;;;;;5031416;28;20214;-69
2021/03/29 12:32:44;;;;;;;15.23;2.75;;;22.30;45.30;;;;;;5032097;28;20706;-69
2021/03/29 12:35:15;;;;;;;5.22;2.03;;;22.30;44.30;;;;;;5032125;28;20607;-69
2021/03/29 12:37:44;;;;;;;5.25;1.92;;;22.40;44.40;;;;;;5032535;28;20249;-69
2021/03/29 12:40:17;;;;;;;4.95;2.30;;;22.40;45.10;;;;;;5032858;28;20674;-69
2021/03/29 12:43:03;;;;;;;6.43;2.03;;;22.40;44.20;;;;;;5033038;28;20249;-70
2021/03/29 12:45:32;;;;;;;7.25;2.22;;;22.40;43.70;;;;;;5032323;28;20589;-69
2021/03/29 12:47:59;;;;;;;6.20;2.10;;;22.40;43.50;;;;;;5031952;28;20241;-69
2021/03/29 12:50:26;;;;;;;6.47;2.42;;;22.40;43.60;;;;;;5031800;28;20210;-69
2021/03/29 12:52:53;;;;;;;6.88;2.20;;;22.40;44.40;;;;;;5031518;28;20780;-70
2021/03/29 12:55:21;;;;;;;6.47;2.22;;;22.50;43.80;;;;;;5031746;28;20214;-69
2021/03/29 12:57:48;;;;;;;3.63;2.13;;;22.60;43.50;;;;;;5031900;28;20209;-69
2021/03/29 13:00:19;;;;;;;8.27;2.30;;;22.60;44.00;;;;;;5031306;28;20592;-69
2021/03/29 13:02:46;;;;;;;5.50;2.45;;;22.60;42.80;;;;;;5031304;28;20234;-69